Nobel, Canada
Current Conditions -  °F | °C
As of 9:00 PM on Friday 19 Dec 2014 (Local Time) from CYQA Reporting Station
Few Clouds Few Clouds  
Wind Chill:   Ceiling: Unl
Heat Index: 16°   Visibility: 9mi
Dew Point: 14°   Wind: 6mph
Humidity: 93%   Direction: 330°NNW
Pressure: 30.23"   Gusts: NA
Location:  45.41°N, 80.09°W
Report Text: CYQA 200200Z AUTO 33005KT 9SM FEW065 M09/M10 A3023 RMK SLP258
Loading
Personal Weather Stations






























Interactive Weather Map New forecast layout! Learn more

10-Day Weather Forecast

Advertisements
Track Severe Weather on mobile